sensor_id;sensor_type;location;lat;lon;timestamp;pressure;altitude;pressure_sealevel;temperature;humidity
31681;BME280;18281;51.364;9.566;2023-11-19T00:02:14;99581.69;;;3.92;100.00
31681;BME280;18281;51.364;9.566;2023-11-19T00:04:40;99587.41;;;4.02;100.00
31681;BME280;18281;51.364;9.566;2023-11-19T00:07:05;99569.91;;;4.07;100.00
31681;BME280;18281;51.364;9.566;2023-11-19T00:09:33;99561.31;;;4.05;100.00
31681;BME280;18281;51.364;9.566;2023-11-19T00:11:58;99561.13;;;4.11;100.00
31681;BME280;18281;51.364;9.566;2023-11-19T00:14:25;99563.47;;;3.94;100.00
31681;BME280;18281;51.364;9.566;2023-11-19T00:16:51;99554.66;;;3.98;100.00
31681;BME280;18281;51.364;9.566;2023-11-19T00:19:16;99545.09;;;3.98;100.00
31681;BME280;18281;51.364;9.566;2023-11-19T00:21:41;99542.78;;;3.91;100.00
31681;BME280;18281;51.364;9.566;2023-11-19T00:24:07;99553.13;;;3.92;100.00
31681;BME280;18281;51.364;9.566;2023-11-19T00:26:33;99539.84;;;4.00;100.00
31681;BME280;18281;51.364;9.566;2023-11-19T00:28:58;99525.97;;;4.01;100.00
31681;BME280;18281;51.364;9.566;2023-11-19T00:31:24;99512.78;;;4.07;100.00
31681;BME280;18281;51.364;9.566;2023-11-19T00:33:51;99511.91;;;4.06;100.00
31681;BME280;18281;51.364;9.566;2023-11-19T00:36:16;99512.84;;;4.04;100.00
31681;BME280;18281;51.364;9.566;2023-11-19T00:38:41;99499.09;;;4.02;100.00
31681;BME280;18281;51.364;9.566;2023-11-19T00:41:07;99500.56;;;4.09;100.00
31681;BME280;18281;51.364;9.566;2023-11-19T00:43:32;99494.03;;;3.99;100.00
31681;BME280;18281;51.364;9.566;2023-11-19T00:45:57;99485.38;;;3.98;100.00
31681;BME280;18281;51.364;9.566;2023-11-19T00:48:22;99474.75;;;4.04;100.00
31681;BME280;18281;51.364;9.566;2023-11-19T00:50:48;99479.00;;;4.07;100.00
31681;BME280;18281;51.364;9.566;2023-11-19T00:53:13;99468.31;;;4.15;100.00
31681;BME280;18281;51.364;9.566;2023-11-19T00:55:38;99461.25;;;4.18;100.00
31681;BME280;18281;51.364;9.566;2023-11-19T00:58:03;99470.81;;;4.18;100.00
31681;BME280;18281;51.364;9.566;2023-11-19T01:00:28;99462.75;;;4.24;100.00
31681;BME280;18281;51.364;9.566;2023-11-19T01:02:54;99460.81;;;4.07;100.00
31681;BME280;18281;51.364;9.566;2023-11-19T01:05:19;99472.84;;;4.10;100.00
31681;BME280;18281;51.364;9.566;2023-11-19T01:07:48;99455.28;;;4.16;100.00
31681;BME280;18281;51.364;9.566;2023-11-19T01:10:13;99446.53;;;4.19;100.00
31681;BME280;18281;51.364;9.566;2023-11-19T01:12:40;99444.81;;;4.18;100.00
31681;BME280;18281;51.364;9.566;2023-11-19T01:15:05;99440.53;;;4.17;100.00
31681;BME280;18281;51.364;9.566;2023-11-19T01:17:31;99441.50;;;4.14;100.00
31681;BME280;18281;51.364;9.566;2023-11-19T01:19:57;99450.97;;;4.15;100.00
31681;BME280;18281;51.364;9.566;2023-11-19T01:22:22;99436.91;;;4.21;100.00
31681;BME280;18281;51.364;9.566;2023-11-19T01:24:48;99442.78;;;4.26;100.00
31681;BME280;18281;51.364;9.566;2023-11-19T01:27:13;99442.94;;;4.21;100.00
31681;BME280;18281;51.364;9.566;2023-11-19T01:29:38;99432.25;;;4.29;100.00
31681;BME280;18281;51.364;9.566;2023-11-19T01:32:04;99427.25;;;4.25;100.00
31681;BME280;18281;51.364;9.566;2023-11-19T01:34:30;99419.53;;;4.21;100.00
31681;BME280;18281;51.364;9.566;2023-11-19T01:36:55;99398.38;;;4.32;100.00
31681;BME280;18281;51.364;9.566;2023-11-19T01:39:20;99388.97;;;4.28;100.00
31681;BME280;18281;51.364;9.566;2023-11-19T01:41:46;99417.56;;;4.28;100.00
31681;BME280;18281;51.364;9.566;2023-11-19T01:44:11;99417.53;;;4.30;100.00
31681;BME280;18281;51.364;9.566;2023-11-19T01:46:37;99421.63;;;4.35;100.00
31681;BME280;18281;51.364;9.566;2023-11-19T01:49:04;99425.78;;;4.39;100.00
31681;BME280;18281;51.364;9.566;2023-11-19T01:51:30;99421.16;;;4.26;100.00
31681;BME280;18281;51.364;9.566;2023-11-19T01:53:55;99434.84;;;4.29;100.00
31681;BME280;18281;51.364;9.566;2023-11-19T01:56:22;99426.56;;;4.19;100.00
31681;BME280;18281;51.364;9.566;2023-11-19T01:58:48;99414.94;;;4.30;100.00
31681;BME280;18281;51.364;9.566;2023-11-19T02:01:13;99418.06;;;4.38;100.00
31681;BME280;18281;51.364;9.566;2023-11-19T02:03:39;99426.03;;;4.33;100.00
31681;BME280;18281;51.364;9.566;2023-11-19T02:06:05;99428.94;;;4.26;100.00
31681;BME280;18281;51.364;9.566;2023-11-19T02:08:30;99426.53;;;4.43;100.00
31681;BME280;18281;51.364;9.566;2023-11-19T02:10:56;99423.50;;;4.54;100.00
31681;BME280;18281;51.364;9.566;2023-11-19T02:13:23;99432.63;;;4.42;100.00
31681;BME280;18281;51.364;9.566;2023-11-19T02:15:48;99413.94;;;4.54;100.00
31681;BME280;18281;51.364;9.566;2023-11-19T02:18:17;99421.44;;;4.62;100.00
31681;BME280;18281;51.364;9.566;2023-11-19T02:20:43;99419.50;;;4.45;100.00
31681;BME280;18281;51.364;9.566;2023-11-19T02:23:08;99406.28;;;4.51;100.00
31681;BME280;18281;51.364;9.566;2023-11-19T02:25:33;99413.94;;;4.54;100.00
31681;BME280;18281;51.364;9.566;2023-11-19T02:27:59;99397.06;;;4.65;100.00
31681;BME280;18281;51.364;9.566;2023-11-19T02:30:25;99395.22;;;4.67;100.00
31681;BME280;18281;51.364;9.566;2023-11-19T02:33:00;99384.78;;;4.68;100.00
31681;BME280;18281;51.364;9.566;2023-11-19T02:35:30;99387.88;;;4.56;100.00
31681;BME280;18281;51.364;9.566;2023-11-19T02:37:56;99385.41;;;4.53;100.00
31681;BME280;18281;51.364;9.566;2023-11-19T02:40:22;99374.63;;;4.62;100.00
31681;BME280;18281;51.364;9.566;2023-11-19T02:42:49;99358.84;;;4.67;100.00
31681;BME280;18281;51.364;9.566;2023-11-19T02:45:14;99347.66;;;4.65;100.00
31681;BME280;18281;51.364;9.566;2023-11-19T02:47:43;99343.56;;;4.59;100.00
31681;BME280;18281;51.364;9.566;2023-11-19T02:50:09;99332.84;;;4.67;100.00
31681;BME280;18281;51.364;9.566;2023-11-19T02:52:40;99342.34;;;4.68;100.00
31681;BME280;18281;51.364;9.566;2023-11-19T02:55:05;99348.94;;;4.75;100.00
31681;BME280;18281;51.364;9.566;2023-11-19T02:57:35;99338.56;;;4.75;100.00
31681;BME280;18281;51.364;9.566;2023-11-19T03:00:00;99334.94;;;4.79;100.00
31681;BME280;18281;51.364;9.566;2023-11-19T03:02:25;99324.53;;;4.79;100.00
31681;BME280;18281;51.364;9.566;2023-11-19T03:04:58;99329.66;;;4.81;100.00
31681;BME280;18281;51.364;9.566;2023-11-19T03:07:24;99323.09;;;4.72;100.00
31681;BME280;18281;51.364;9.566;2023-11-19T03:09:49;99322.69;;;4.81;100.00
31681;BME280;18281;51.364;9.566;2023-11-19T03:12:14;99325.38;;;4.80;100.00
31681;BME280;18281;51.364;9.566;2023-11-19T03:14:40;99327.06;;;4.81;100.00
31681;BME280;18281;51.364;9.566;2023-11-19T03:17:05;99322.69;;;4.81;100.00
31681;BME280;18281;51.364;9.566;2023-11-19T03:19:30;99319.78;;;4.89;100.00
31681;BME280;18281;51.364;9.566;2023-11-19T03:21:55;99314.00;;;4.82;100.00
31681;BME280;18281;51.364;9.566;2023-11-19T03:24:21;99294.81;;;4.85;100.00
31681;BME280;18281;51.364;9.566;2023-11-19T03:26:49;99293.78;;;4.89;100.00
31681;BME280;18281;51.364;9.566;2023-11-19T03:29:15;99293.84;;;4.87;100.00
31681;BME280;18281;51.364;9.566;2023-11-19T03:31:43;99304.03;;;4.92;100.00
31681;BME280;18281;51.364;9.566;2023-11-19T03:34:09;99304.31;;;4.86;100.00
31681;BME280;18281;51.364;9.566;2023-11-19T03:36:34;99312.88;;;4.88;100.00
31681;BME280;18281;51.364;9.566;2023-11-19T03:39:00;99301.72;;;4.86;100.00
31681;BME280;18281;51.364;9.566;2023-11-19T03:41:25;99322.31;;;4.90;100.00
31681;BME280;18281;51.364;9.566;2023-11-19T03:43:50;99309.81;;;4.99;100.00
31681;BME280;18281;51.364;9.566;2023-11-19T03:46:16;99289.91;;;4.98;100.00
31681;BME280;18281;51.364;9.566;2023-11-19T03:48:42;99295.00;;;5.01;100.00
31681;BME280;18281;51.364;9.566;2023-11-19T03:51:07;99292.41;;;5.01;100.00
31681;BME280;18281;51.364;9.566;2023-11-19T03:53:32;99295.06;;;4.99;100.00
31681;BME280;18281;51.364;9.566;2023-11-19T03:55:57;99294.84;;;5.04;100.00
31681;BME280;18281;51.364;9.566;2023-11-19T03:58:23;99288.75;;;5.05;100.00
31681;BME280;18281;51.364;9.566;2023-11-19T04:00:49;99284.09;;;5.12;100.00
31681;BME280;18281;51.364;9.566;2023-11-19T04:03:14;99282.56;;;5.07;100.00
31681;BME280;18281;51.364;9.566;2023-11-19T04:05:39;99292.09;;;5.07;100.00
31681;BME280;18281;51.364;9.566;2023-11-19T04:08:04;99273.00;;;5.08;100.00
31681;BME280;18281;51.364;9.566;2023-11-19T04:10:30;99258.28;;;5.07;100.00
31681;BME280;18281;51.364;9.566;2023-11-19T04:12:55;99259.06;;;5.09;100.00
31681;BME280;18281;51.364;9.566;2023-11-19T04:15:20;99262.56;;;5.08;100.00
31681;BME280;18281;51.364;9.566;2023-11-19T04:17:46;99272.84;;;5.11;100.00
31681;BME280;18281;51.364;9.566;2023-11-19T04:20:11;99255.81;;;5.04;100.00
31681;BME280;18281;51.364;9.566;2023-11-19T04:22:38;99282.75;;;5.03;100.00
31681;BME280;18281;51.364;9.566;2023-11-19T04:25:04;99276.22;;;5.13;100.00
31681;BME280;18281;51.364;9.566;2023-11-19T04:27:29;99279.16;;;5.05;100.00
31681;BME280;18281;51.364;9.566;2023-11-19T04:29:55;99305.00;;;5.10;100.00
31681;BME280;18281;51.364;9.566;2023-11-19T04:32:20;99312.72;;;5.12;100.00
31681;BME280;18281;51.364;9.566;2023-11-19T04:34:46;99296.00;;;5.17;100.00
31681;BME280;18281;51.364;9.566;2023-11-19T04:37:11;99295.09;;;5.18;100.00
31681;BME280;18281;51.364;9.566;2023-11-19T04:39:36;99296.63;;;5.22;100.00
31681;BME280;18281;51.364;9.566;2023-11-19T04:42:02;99293.16;;;5.22;100.00
31681;BME280;18281;51.364;9.566;2023-11-19T04:44:27;99289.47;;;5.28;100.00
31681;BME280;18281;51.364;9.566;2023-11-19T04:46:54;99270.13;;;5.33;100.00
31681;BME280;18281;51.364;9.566;2023-11-19T04:49:19;99257.94;;;5.34;100.00
31681;BME280;18281;51.364;9.566;2023-11-19T04:51:46;99256.31;;;5.31;100.00
31681;BME280;18281;51.364;9.566;2023-11-19T04:54:12;99261.47;;;5.33;100.00
31681;BME280;18281;51.364;9.566;2023-11-19T04:56:37;99260.63;;;5.32;100.00
31681;BME280;18281;51.364;9.566;2023-11-19T04:59:03;99251.78;;;5.36;100.00
31681;BME280;18281;51.364;9.566;2023-11-19T05:01:28;99243.97;;;5.36;100.00
31681;BME280;18281;51.364;9.566;2023-11-19T05:03:53;99255.00;;;5.22;100.00
31681;BME280;18281;51.364;9.566;2023-11-19T05:06:19;99250.28;;;5.31;100.00
31681;BME280;18281;51.364;9.566;2023-11-19T05:08:44;99260.50;;;5.35;100.00
31681;BME280;18281;51.364;9.566;2023-11-19T05:11:10;99245.69;;;5.37;100.00
31681;BME280;18281;51.364;9.566;2023-11-19T05:13:37;99248.34;;;5.36;100.00
31681;BME280;18281;51.364;9.566;2023-11-19T05:16:02;99244.84;;;5.37;100.00
31681;BME280;18281;51.364;9.566;2023-11-19T05:18:28;99240.38;;;5.39;100.00
31681;BME280;18281;51.364;9.566;2023-11-19T05:20:53;99233.50;;;5.38;100.00
31681;BME280;18281;51.364;9.566;2023-11-19T05:23:18;99236.44;;;5.49;100.00
31681;BME280;18281;51.364;9.566;2023-11-19T05:25:43;99233.78;;;5.51;100.00
31681;BME280;18281;51.364;9.566;2023-11-19T05:28:10;99230.81;;;5.59;100.00
31681;BME280;18281;51.364;9.566;2023-11-19T05:30:35;99228.56;;;5.51;100.00
31681;BME280;18281;51.364;9.566;2023-11-19T05:33:01;99225.13;;;5.50;100.00
31681;BME280;18281;51.364;9.566;2023-11-19T05:35:26;99227.34;;;5.58;100.00
31681;BME280;18281;51.364;9.566;2023-11-19T05:37:51;99216.59;;;5.47;100.00
31681;BME280;18281;51.364;9.566;2023-11-19T05:40:16;99233.00;;;5.49;100.00
31681;BME280;18281;51.364;9.566;2023-11-19T05:42:42;99230.19;;;5.53;100.00
31681;BME280;18281;51.364;9.566;2023-11-19T05:45:08;99243.13;;;5.55;100.00
31681;BME280;18281;51.364;9.566;2023-11-19T05:47:33;99253.78;;;5.50;100.00
31681;BME280;18281;51.364;9.566;2023-11-19T05:49:59;99251.09;;;5.52;100.00
31681;BME280;18281;51.364;9.566;2023-11-19T05:52:24;99249.13;;;5.57;100.00
31681;BME280;18281;51.364;9.566;2023-11-19T05:54:49;99240.38;;;5.58;100.00
31681;BME280;18281;51.364;9.566;2023-11-19T05:57:17;99240.91;;;5.65;100.00
31681;BME280;18281;51.364;9.566;2023-11-19T05:59:47;99245.00;;;5.70;100.00
31681;BME280;18281;51.364;9.566;2023-11-19T06:02:13;99234.59;;;5.70;100.00
31681;BME280;18281;51.364;9.566;2023-11-19T06:04:38;99234.69;;;5.69;100.00
31681;BME280;18281;51.364;9.566;2023-11-19T06:07:03;99238.94;;;5.70;100.00
31681;BME280;18281;51.364;9.566;2023-11-19T06:09:30;99239.56;;;5.75;100.00
31681;BME280;18281;51.364;9.566;2023-11-19T06:11:55;99242.25;;;5.73;100.00
31681;BME280;18281;51.364;9.566;2023-11-19T06:14:22;99244.38;;;5.65;100.00
31681;BME280;18281;51.364;9.566;2023-11-19T06:16:49;99244.03;;;5.73;100.00
31681;BME280;18281;51.364;9.566;2023-11-19T06:19:14;99243.94;;;5.75;100.00
31681;BME280;18281;51.364;9.566;2023-11-19T06:21:39;99242.09;;;5.77;100.00
31681;BME280;18281;51.364;9.566;2023-11-19T06:24:05;99250.00;;;5.75;100.00
31681;BME280;18281;51.364;9.566;2023-11-19T06:26:30;99255.75;;;5.82;100.00
31681;BME280;18281;51.364;9.566;2023-11-19T06:28:55;99252.59;;;5.75;100.00
31681;BME280;18281;51.364;9.566;2023-11-19T06:31:20;99249.72;;;5.81;100.00
31681;BME280;18281;51.364;9.566;2023-11-19T06:33:46;99262.56;;;5.84;100.00
31681;BME280;18281;51.364;9.566;2023-11-19T06:36:13;99264.34;;;5.84;100.00
31681;BME280;18281;51.364;9.566;2023-11-19T06:38:41;99270.22;;;5.87;100.00
31681;BME280;18281;51.364;9.566;2023-11-19T06:41:07;99264.19;;;5.87;100.00
31681;BME280;18281;51.364;9.566;2023-11-19T06:43:32;99257.22;;;5.87;100.00
31681;BME280;18281;51.364;9.566;2023-11-19T06:45:58;99259.50;;;5.76;100.00
31681;BME280;18281;51.364;9.566;2023-11-19T06:48:24;99258.75;;;5.92;100.00
31681;BME280;18281;51.364;9.566;2023-11-19T06:50:49;99259.59;;;5.92;100.00
31681;BME280;18281;51.364;9.566;2023-11-19T06:53:14;99252.88;;;5.88;100.00
31681;BME280;18281;51.364;9.566;2023-11-19T06:55:39;99260.16;;;5.99;100.00
31681;BME280;18281;51.364;9.566;2023-11-19T06:58:05;99248.13;;;5.96;100.00
31681;BME280;18281;51.364;9.566;2023-11-19T07:00:30;99255.38;;;5.89;100.00
31681;BME280;18281;51.364;9.566;2023-11-19T07:02:58;99257.91;;;5.91;100.00
31681;BME280;18281;51.364;9.566;2023-11-19T07:05:23;99262.06;;;5.95;100.00
31681;BME280;18281;51.364;9.566;2023-11-19T07:07:49;99264.66;;;5.95;100.00
31681;BME280;18281;51.364;9.566;2023-11-19T07:10:14;99274.00;;;5.99;100.00
31681;BME280;18281;51.364;9.566;2023-11-19T07:12:40;99267.97;;;5.99;100.00
31681;BME280;18281;51.364;9.566;2023-11-19T07:15:07;99266.81;;;6.04;100.00
31681;BME280;18281;51.364;9.566;2023-11-19T07:17:33;99266.13;;;6.01;100.00
31681;BME280;18281;51.364;9.566;2023-11-19T07:20:00;99265.38;;;5.99;100.00
31681;BME280;18281;51.364;9.566;2023-11-19T07:22:25;99265.75;;;6.09;100.00
31681;BME280;18281;51.364;9.566;2023-11-19T07:24:51;99254.78;;;6.02;100.00
31681;BME280;18281;51.364;9.566;2023-11-19T07:27:16;99273.50;;;6.10;100.00
31681;BME280;18281;51.364;9.566;2023-11-19T07:29:43;99272.75;;;6.08;100.00
31681;BME280;18281;51.364;9.566;2023-11-19T07:32:08;99267.66;;;6.05;100.00
31681;BME280;18281;51.364;9.566;2023-11-19T07:34:33;99264.50;;;5.98;100.00
31681;BME280;18281;51.364;9.566;2023-11-19T07:36:59;99277.03;;;6.09;100.00
31681;BME280;18281;51.364;9.566;2023-11-19T07:39:30;99279.47;;;6.12;100.00
31681;BME280;18281;51.364;9.566;2023-11-19T07:41:56;99274.19;;;6.14;100.00
31681;BME280;18281;51.364;9.566;2023-11-19T07:44:21;99263.59;;;6.17;100.00
31681;BME280;18281;51.364;9.566;2023-11-19T07:46:47;99269.69;;;6.17;100.00
31681;BME280;18281;51.364;9.566;2023-11-19T07:49:13;99271.22;;;6.21;100.00
31681;BME280;18281;51.364;9.566;2023-11-19T07:51:38;99277.41;;;6.19;100.00
31681;BME280;18281;51.364;9.566;2023-11-19T07:54:04;99286.97;;;6.18;100.00
31681;BME280;18281;51.364;9.566;2023-11-19T07:56:29;99285.16;;;6.20;100.00
31681;BME280;18281;51.364;9.566;2023-11-19T07:58:54;99278.97;;;6.23;100.00
31681;BME280;18281;51.364;9.566;2023-11-19T08:01:19;99271.97;;;6.23;100.00
31681;BME280;18281;51.364;9.566;2023-11-19T08:03:45;99281.72;;;6.20;100.00
31681;BME280;18281;51.364;9.566;2023-11-19T08:06:10;99286.53;;;6.28;100.00
31681;BME280;18281;51.364;9.566;2023-11-19T08:08:35;99273.38;;;6.31;100.00
31681;BME280;18281;51.364;9.566;2023-11-19T08:11:03;99270.91;;;6.28;100.00
31681;BME280;18281;51.364;9.566;2023-11-19T08:13:28;99270.47;;;6.88;100.00
31681;BME280;18281;51.364;9.566;2023-11-19T08:15:53;99267.22;;;7.18;100.00
31681;BME280;18281;51.364;9.566;2023-11-19T08:18:18;99261.47;;;7.11;100.00
31681;BME280;18281;51.364;9.566;2023-11-19T08:20:44;99262.63;;;7.05;100.00
31681;BME280;18281;51.364;9.566;2023-11-19T08:23:10;99262.28;;;6.96;100.00
31681;BME280;18281;51.364;9.566;2023-11-19T08:25:35;99271.97;;;6.92;100.00
31681;BME280;18281;51.364;9.566;2023-11-19T08:28:00;99280.06;;;6.87;100.00
31681;BME280;18281;51.364;9.566;2023-11-19T08:30:26;99293.28;;;6.84;100.00
31681;BME280;18281;51.364;9.566;2023-11-19T08:32:52;99287.13;;;6.85;100.00
31681;BME280;18281;51.364;9.566;2023-11-19T08:35:17;99293.88;;;6.72;100.00
31681;BME280;18281;51.364;9.566;2023-11-19T08:37:42;99297.28;;;6.74;100.00
31681;BME280;18281;51.364;9.566;2023-11-19T08:40:08;99299.88;;;6.74;100.00
31681;BME280;18281;51.364;9.566;2023-11-19T08:42:34;99302.56;;;6.72;100.00
31681;BME280;18281;51.364;9.566;2023-11-19T08:45:00;99310.47;;;6.71;100.00
31681;BME280;18281;51.364;9.566;2023-11-19T08:47:25;99310.56;;;6.69;100.00
31681;BME280;18281;51.364;9.566;2023-11-19T08:49:53;99313.09;;;6.71;100.00
31681;BME280;18281;51.364;9.566;2023-11-19T08:52:19;99307.88;;;6.71;100.00
31681;BME280;18281;51.364;9.566;2023-11-19T08:54:44;99304.56;;;6.67;100.00
31681;BME280;18281;51.364;9.566;2023-11-19T08:57:10;99299.06;;;6.73;100.00
31681;BME280;18281;51.364;9.566;2023-11-19T08:59:35;99304.19;;;6.75;100.00
31681;BME280;18281;51.364;9.566;2023-11-19T09:02:02;99309.16;;;6.80;100.00
31681;BME280;18281;51.364;9.566;2023-11-19T09:04:27;99315.38;;;6.77;100.00
31681;BME280;18281;51.364;9.566;2023-11-19T09:06:53;99319.28;;;6.86;100.00
31681;BME280;18281;51.364;9.566;2023-11-19T09:09:18;99323.50;;;6.88;100.00
31681;BME280;18281;51.364;9.566;2023-11-19T09:11:43;99323.22;;;6.95;100.00
31681;BME280;18281;51.364;9.566;2023-11-19T09:14:09;99328.28;;;6.98;100.00
31681;BME280;18281;51.364;9.566;2023-11-19T09:16:34;99337.16;;;6.94;100.00
31681;BME280;18281;51.364;9.566;2023-11-19T09:18:59;99337.03;;;6.97;100.00
31681;BME280;18281;51.364;9.566;2023-11-19T09:21:25;99350.09;;;6.97;100.00
31681;BME280;18281;51.364;9.566;2023-11-19T09:23:50;99338.72;;;6.98;100.00
31681;BME280;18281;51.364;9.566;2023-11-19T09:26:15;99339.47;;;7.00;100.00
31681;BME280;18281;51.364;9.566;2023-11-19T09:28:41;99334.88;;;7.05;100.00
31681;BME280;18281;51.364;9.566;2023-11-19T09:31:13;99345.09;;;7.10;100.00
31681;BME280;18281;51.364;9.566;2023-11-19T09:33:38;99344.22;;;7.09;100.00
31681;BME280;18281;51.364;9.566;2023-11-19T09:36:03;99344.91;;;7.13;100.00
31681;BME280;18281;51.364;9.566;2023-11-19T09:38:28;99344.66;;;7.17;100.00
31681;BME280;18281;51.364;9.566;2023-11-19T09:40:54;99354.34;;;7.15;100.00
31681;BME280;18281;51.364;9.566;2023-11-19T09:43:19;99356.97;;;7.15;100.00
31681;BME280;18281;51.364;9.566;2023-11-19T09:45:48;99350.13;;;7.13;100.00
31681;BME280;18281;51.364;9.566;2023-11-19T09:48:16;99354.50;;;7.12;100.00
31681;BME280;18281;51.364;9.566;2023-11-19T09:50:41;99353.44;;;7.16;100.00
31681;BME280;18281;51.364;9.566;2023-11-19T09:53:07;99358.56;;;7.18;100.00
31681;BME280;18281;51.364;9.566;2023-11-19T09:55:32;99353.28;;;7.19;100.00
31681;BME280;18281;51.364;9.566;2023-11-19T09:57:57;99355.78;;;7.21;100.00
31681;BME280;18281;51.364;9.566;2023-11-19T10:00:26;99346.19;;;7.21;100.00
31681;BME280;18281;51.364;9.566;2023-11-19T10:02:51;99355.53;;;7.26;100.00
31681;BME280;18281;51.364;9.566;2023-11-19T10:05:17;99347.66;;;7.27;100.00
31681;BME280;18281;51.364;9.566;2023-11-19T10:07:45;99350.41;;;7.24;100.00
31681;BME280;18281;51.364;9.566;2023-11-19T10:10:10;99340.06;;;7.22;100.00
31681;BME280;18281;51.364;9.566;2023-11-19T10:12:40;99339.03;;;7.25;100.00
31681;BME280;18281;51.364;9.566;2023-11-19T10:15:05;99345.72;;;7.31;100.00
31681;BME280;18281;51.364;9.566;2023-11-19T10:17:32;99344.78;;;7.32;100.00
31681;BME280;18281;51.364;9.566;2023-11-19T10:19:58;99333.34;;;7.34;100.00
31681;BME280;18281;51.364;9.566;2023-11-19T10:22:24;99328.03;;;7.36;100.00
31681;BME280;18281;51.364;9.566;2023-11-19T10:24:50;99328.31;;;7.47;100.00
31681;BME280;18281;51.364;9.566;2023-11-19T10:27:15;99328.56;;;7.43;100.00
31681;BME280;18281;51.364;9.566;2023-11-19T10:29:42;99325.25;;;7.39;100.00
31681;BME280;18281;51.364;9.566;2023-11-19T10:32:09;99326.03;;;7.41;100.00
31681;BME280;18281;51.364;9.566;2023-11-19T10:34:34;99324.09;;;7.45;100.00
31681;BME280;18281;51.364;9.566;2023-11-19T10:37:02;99321.31;;;7.48;100.00
31681;BME280;18281;51.364;9.566;2023-11-19T10:39:38;99325.75;;;7.46;100.00
31681;BME280;18281;51.364;9.566;2023-11-19T10:42:16;99324.75;;;7.48;100.00
31681;BME280;18281;51.364;9.566;2023-11-19T10:44:41;99324.03;;;7.78;100.00
31681;BME280;18281;51.364;9.566;2023-11-19T10:47:07;99316.09;;;7.96;100.00
31681;BME280;18281;51.364;9.566;2023-11-19T10:49:33;99310.28;;;7.90;100.00
31681;BME280;18281;51.364;9.566;2023-11-19T10:52:00;99308.00;;;7.84;100.00
31681;BME280;18281;51.364;9.566;2023-11-19T10:54:26;99313.59;;;7.78;100.00
31681;BME280;18281;51.364;9.566;2023-11-19T10:56:54;99301.19;;;7.82;100.00
31681;BME280;18281;51.364;9.566;2023-11-19T10:59:20;99302.13;;;7.81;100.00
31681;BME280;18281;51.364;9.566;2023-11-19T11:01:47;99297.41;;;7.87;100.00
31681;BME280;18281;51.364;9.566;2023-11-19T11:04:19;99298.22;;;7.88;100.00
31681;BME280;18281;51.364;9.566;2023-11-19T11:06:47;99288.97;;;7.82;100.00
31681;BME280;18281;51.364;9.566;2023-11-19T11:09:12;99293.19;;;7.85;100.00
31681;BME280;18281;51.364;9.566;2023-11-19T11:11:39;99283.56;;;7.85;100.00
31681;BME280;18281;51.364;9.566;2023-11-19T11:14:05;99289.47;;;7.89;100.00
31681;BME280;18281;51.364;9.566;2023-11-19T11:16:31;99287.28;;;7.81;100.00
31681;BME280;18281;51.364;9.566;2023-11-19T11:18:56;99283.56;;;7.85;100.00
31681;BME280;18281;51.364;9.566;2023-11-19T11:21:22;99284.34;;;7.87;100.00
31681;BME280;18281;51.364;9.566;2023-11-19T11:36:30;99288.75;;;9.21;100.00
31681;BME280;18281;51.364;9.566;2023-11-19T11:38:57;99290.72;;;9.32;100.00
31681;BME280;18281;51.364;9.566;2023-11-19T11:41:23;99297.16;;;9.41;100.00
31681;BME280;18281;51.364;9.566;2023-11-19T11:43:52;99292.66;;;9.57;100.00
31681;BME280;18281;51.364;9.566;2023-11-19T11:49:02;99296.88;;;9.46;100.00
31681;BME280;18281;51.364;9.566;2023-11-19T11:51:57;99293.97;;;9.36;100.00
31681;BME280;18281;51.364;9.566;2023-11-19T11:57:30;99297.34;;;9.23;100.00
31681;BME280;18281;51.364;9.566;2023-11-19T12:00:03;99299.97;;;9.09;100.00
31681;BME280;18281;51.364;9.566;2023-11-19T12:02:22;99289.69;;;9.06;100.00
31681;BME280;18281;51.364;9.566;2023-11-19T12:04:48;99291.00;;;8.99;100.00
31681;BME280;18281;51.364;9.566;2023-11-19T12:07:16;99296.34;;;8.97;100.00
31681;BME280;18281;51.364;9.566;2023-11-19T12:09:42;99301.16;;;8.89;100.00
31681;BME280;18281;51.364;9.566;2023-11-19T12:19:58;99310.63;;;8.77;100.00
31681;BME280;18281;51.364;9.566;2023-11-19T12:22:24;99301.75;;;8.80;100.00
31681;BME280;18281;51.364;9.566;2023-11-19T12:24:49;99302.56;;;8.80;100.00
31681;BME280;18281;51.364;9.566;2023-11-19T12:27:16;99297.50;;;8.63;100.00
31681;BME280;18281;51.364;9.566;2023-11-19T12:29:42;99288.88;;;8.61;100.00
31681;BME280;18281;51.364;9.566;2023-11-19T12:32:09;99288.44;;;8.68;100.00
31681;BME280;18281;51.364;9.566;2023-11-19T12:34:34;99296.03;;;8.73;100.00
31681;BME280;18281;51.364;9.566;2023-11-19T12:37:03;99295.19;;;8.72;100.00
31681;BME280;18281;51.364;9.566;2023-11-19T12:39:32;99288.25;;;8.71;100.00
31681;BME280;18281;51.364;9.566;2023-11-19T12:41:57;99285.94;;;8.67;100.00
31681;BME280;18281;51.364;9.566;2023-11-19T12:44:25;99289.84;;;8.74;100.00
31681;BME280;18281;51.364;9.566;2023-11-19T12:47:00;99292.47;;;8.74;100.00
31681;BME280;18281;51.364;9.566;2023-11-19T12:49:26;99274.16;;;8.74;100.00
31681;BME280;18281;51.364;9.566;2023-11-19T12:51:51;99271.44;;;8.61;100.00
31681;BME280;18281;51.364;9.566;2023-11-19T12:54:16;99266.84;;;8.65;100.00
31681;BME280;18281;51.364;9.566;2023-11-19T12:56:52;99264.22;;;8.65;100.00
31681;BME280;18281;51.364;9.566;2023-11-19T12:59:18;99265.44;;;8.59;100.00
31681;BME280;18281;51.364;9.566;2023-11-19T13:01:58;99257.00;;;8.54;100.00
31681;BME280;18281;51.364;9.566;2023-11-19T13:04:27;99265.09;;;8.65;100.00
31681;BME280;18281;51.364;9.566;2023-11-19T13:06:53;99270.41;;;8.78;100.00
31681;BME280;18281;51.364;9.566;2023-11-19T13:09:25;99272.97;;;8.80;100.00
31681;BME280;18281;51.364;9.566;2023-11-19T13:11:50;99272.28;;;8.76;100.00
31681;BME280;18281;51.364;9.566;2023-11-19T13:14:16;99267.97;;;8.75;100.00
31681;BME280;18281;51.364;9.566;2023-11-19T13:16:42;99263.09;;;8.69;100.00
31681;BME280;18281;51.364;9.566;2023-11-19T13:19:14;99262.66;;;8.77;100.00
31681;BME280;18281;51.364;9.566;2023-11-19T13:21:39;99256.69;;;8.74;100.00